Terminal Aerodrome Forecast
Issued by NWS

Home | Current Version | Previous Version | Text Only | Print | Product List | Glossary On
Versions: 1 2 3 4 5 6 7 8 9 10 11 12 13 14
000
FTUS42 KMLB 242300
TAFLEE
TAF
KLEE 242335Z 2500/2524 27006KT P6SM FEW100 BKN250
     FM250600 21003KT P6SM SCT250
     FM251500 25006KT P6SM SCT030
     FM251900 27008KT P6SM VCTS SCT035CB BKN080=

USA.gov is the U.S. government's official web portal to all federal, state and local government web resources and services.